createdAt,value
2019-03-06T00:02:01.323Z,100631.91
2019-03-06T00:04:34.116Z,100634.49
2019-03-06T00:07:03.687Z,100634.07
2019-03-06T00:09:33.260Z,100637.98
2019-03-06T00:12:02.668Z,100639.72
2019-03-06T00:14:32.172Z,100636.30
2019-03-06T00:17:04.282Z,100635.03
2019-03-06T00:19:33.831Z,100631.16
2019-03-06T00:22:03.312Z,100636.30
2019-03-06T00:24:33.886Z,100636.77
2019-03-06T00:27:03.742Z,100629.00
2019-03-06T00:29:38.720Z,100620.84
2019-03-06T00:32:09.881Z,100621.72
2019-03-06T00:34:39.438Z,100623.41
2019-03-06T00:37:10.566Z,100623.44
2019-03-06T00:39:41.630Z,100623.44
2019-03-06T00:42:11.055Z,100630.31
2019-03-06T00:44:40.462Z,100625.14
2019-03-06T00:47:09.976Z,100623.83
2019-03-06T00:49:39.802Z,100630.31
2019-03-06T00:52:10.567Z,100632.05
2019-03-06T00:54:41.489Z,100626.86
2019-03-06T00:57:10.928Z,100628.17
2019-03-06T00:59:40.884Z,100629.90
2019-03-06T01:02:10.528Z,100628.55
2019-03-06T01:04:47.667Z,100626.82
2019-03-06T01:07:17.107Z,100633.73
2019-03-06T01:09:48.574Z,100630.31
2019-03-06T01:12:20.286Z,100633.75
2019-03-06T01:14:52.358Z,100638.06
2019-03-06T01:17:21.839Z,100644.09
2019-03-06T01:19:51.265Z,100644.09
2019-03-06T01:22:20.855Z,100636.77
2019-03-06T01:24:50.291Z,100640.67
2019-03-06T01:27:19.765Z,100641.55
2019-03-06T01:29:49.375Z,100641.57
2019-03-06T01:32:18.990Z,100639.42
2019-03-06T01:34:53.268Z,100639.83
2019-03-06T01:37:29.447Z,100638.14
2019-03-06T01:40:00.923Z,100635.98
2019-03-06T01:42:42.277Z,100624.38
2019-03-06T01:45:11.755Z,100625.65
2019-03-06T01:47:44.671Z,100622.66
2019-03-06T01:50:20.039Z,100615.35
2019-03-06T01:52:49.684Z,100614.95
2019-03-06T01:55:21.905Z,100617.12
2019-03-06T01:57:51.362Z,100610.67
2019-03-06T02:00:21.375Z,100605.52
2019-03-06T02:02:56.885Z,100607.70
2019-03-06T02:05:29.568Z,100614.20
2019-03-06T02:07:59.076Z,100615.06
2019-03-06T02:10:29.413Z,100621.11
2019-03-06T02:12:58.811Z,100612.50
2019-03-06T02:15:31.495Z,100617.65
2019-03-06T02:18:00.947Z,100610.34
2019-03-06T02:20:30.719Z,100611.20
2019-03-06T02:23:02.868Z,100607.33
2019-03-06T02:25:32.419Z,100602.63
2019-03-06T02:28:03.497Z,100606.50
2019-03-06T02:30:34.716Z,100600.47
2019-03-06T02:33:04.187Z,100603.91
2019-03-06T02:35:36.297Z,100605.20
2019-03-06T02:38:07.428Z,100606.48
2019-03-06T02:40:39.978Z,100607.37
2019-03-06T02:43:12.555Z,100605.63
2019-03-06T02:45:42.001Z,100601.34
2019-03-06T02:48:11.559Z,100596.63
2019-03-06T02:50:42.788Z,100602.21
2019-03-06T02:53:12.199Z,100604.38
2019-03-06T02:55:42.168Z,100596.66
2019-03-06T02:58:20.804Z,100587.62
2019-03-06T03:01:04.339Z,100583.31
2019-03-06T03:03:41.349Z,100582.44
2019-03-06T03:06:15.420Z,100575.11
2019-03-06T03:08:45.766Z,100586.32
2019-03-06T03:11:15.340Z,100577.70
2019-03-06T03:13:45.223Z,100588.44
2019-03-06T03:16:14.748Z,100587.99
2019-03-06T03:18:45.988Z,100582.37
2019-03-06T03:21:15.425Z,100580.20
2019-03-06T03:23:45.037Z,100566.02
2019-03-06T03:26:14.583Z,100558.22
2019-03-06T03:28:44.012Z,100557.74
2019-03-06T03:31:13.445Z,100548.70
2019-03-06T03:33:45.896Z,100555.98
2019-03-06T03:36:18.670Z,100552.09
2019-03-06T03:38:48.077Z,100546.07
2019-03-06T03:41:18.143Z,100542.63
2019-03-06T03:43:52.055Z,100549.52
2019-03-06T03:46:21.502Z,100548.63
2019-03-06T03:48:50.918Z,100536.58
2019-03-06T03:51:20.431Z,100533.14
2019-03-06T03:53:51.737Z,100526.24
2019-03-06T03:56:21.746Z,100528.39
2019-03-06T03:58:56.047Z,100535.23
2019-03-06T04:01:25.662Z,100537.81
2019-03-06T04:03:55.142Z,100535.20
2019-03-06T04:06:24.586Z,100542.95
2019-03-06T04:08:54.077Z,100549.81
2019-03-06T04:11:24.446Z,100545.94
2019-03-06T04:13:53.845Z,100545.47
2019-03-06T04:16:23.270Z,100544.16
2019-03-06T04:18:52.687Z,100526.03
2019-03-06T04:21:22.120Z,100520.42
2019-03-06T04:23:54.386Z,100518.25
2019-03-06T04:26:23.783Z,100513.48
2019-03-06T04:28:54.852Z,100512.22
2019-03-06T04:31:24.365Z,100511.75
2019-03-06T04:33:53.773Z,100506.58
2019-03-06T04:36:23.231Z,100520.36
2019-03-06T04:38:52.639Z,100514.30
2019-03-06T04:41:22.077Z,100510.38
2019-03-06T04:43:53.173Z,100505.66
2019-03-06T04:46:24.249Z,100509.06
2019-03-06T04:48:53.906Z,100500.41
2019-03-06T04:51:24.883Z,100498.23
2019-03-06T04:53:55.464Z,100492.62
2019-03-06T04:56:24.951Z,100486.12
2019-03-06T04:58:54.377Z,100490.42
2019-03-06T05:01:23.810Z,100490.42
2019-03-06T05:03:53.240Z,100484.77
2019-03-06T05:06:22.645Z,100485.61
2019-03-06T05:08:52.078Z,100489.95
2019-03-06T05:11:24.326Z,100488.73
2019-03-06T05:13:53.757Z,100485.70
2019-03-06T05:16:24.812Z,100493.91
2019-03-06T05:18:55.882Z,100488.69
2019-03-06T05:21:25.304Z,100484.39
2019-03-06T05:23:54.740Z,100491.27
2019-03-06T05:26:24.222Z,100486.98
2019-03-06T05:28:55.618Z,100486.55
2019-03-06T05:31:25.026Z,100491.72
2019-03-06T05:33:54.454Z,100482.23
2019-03-06T05:36:35.812Z,100478.80
2019-03-06T05:39:08.038Z,100488.66
2019-03-06T05:41:37.590Z,100488.25
2019-03-06T05:44:10.190Z,100486.94
2019-03-06T05:46:39.661Z,100477.83
2019-03-06T05:49:09.393Z,100470.91
2019-03-06T05:51:38.804Z,100465.72
2019-03-06T05:54:08.218Z,100457.52
2019-03-06T05:56:37.642Z,100470.42
2019-03-06T05:59:09.765Z,100455.70
2019-03-06T06:01:39.200Z,100464.75
2019-03-06T06:04:08.618Z,100453.07
2019-03-06T06:06:38.061Z,100450.53
2019-03-06T06:09:07.652Z,100443.11
2019-03-06T06:11:37.263Z,100439.69
2019-03-06T06:14:06.686Z,100431.04
2019-03-06T06:16:36.191Z,100422.89
2019-03-06T06:19:06.125Z,100415.95
2019-03-06T06:21:40.150Z,100419.35
2019-03-06T06:24:10.744Z,100421.92
2019-03-06T06:26:40.157Z,100422.78
2019-03-06T06:29:09.607Z,100423.25
2019-03-06T06:31:39.167Z,100423.70
2019-03-06T06:34:08.611Z,100429.69
2019-03-06T06:36:38.033Z,100427.11
2019-03-06T06:39:07.614Z,100426.73
2019-03-06T06:41:37.107Z,100428.00
2019-03-06T06:44:08.105Z,100415.95
2019-03-06T06:46:37.598Z,100413.73
2019-03-06T06:49:07.187Z,100413.71
2019-03-06T06:51:57.289Z,100410.23
2019-03-06T06:54:53.991Z,100414.96
2019-03-06T06:57:53.633Z,100403.20
2019-03-06T07:00:30.296Z,100403.61
2019-03-06T07:03:42.057Z,100388.47
2019-03-06T07:06:18.963Z,100375.88
2019-03-06T07:08:50.521Z,100372.84
2019-03-06T07:11:21.621Z,100368.84
2019-03-06T07:13:58.509Z,100363.15
2019-03-06T07:16:29.679Z,100374.80
2019-03-06T07:19:09.720Z,100368.20
2019-03-06T07:21:40.862Z,100371.11
2019-03-06T07:24:25.474Z,100368.81
2019-03-06T07:27:17.806Z,100366.20
2019-03-06T07:29:54.817Z,100366.41
2019-03-06T07:32:28.359Z,100362.47
2019-03-06T07:35:52.324Z,100357.69
2019-03-06T07:38:22.283Z,100357.08
2019-03-06T07:40:56.409Z,100345.29
2019-03-06T07:43:27.632Z,100332.24
2019-03-06T07:45:58.702Z,100327.98
2019-03-06T07:48:41.864Z,100319.62
2019-03-06T07:51:21.908Z,100321.75
2019-03-06T07:54:11.568Z,100314.87
2019-03-06T07:57:01.213Z,100310.31
2019-03-06T07:59:30.837Z,100306.89
2019-03-06T08:02:06.473Z,100308.59
2019-03-06T08:04:35.917Z,100304.27
2019-03-06T08:07:07.455Z,100305.03
2019-03-06T08:09:36.954Z,100309.78
2019-03-06T08:12:08.364Z,100301.87
2019-03-06T08:14:45.484Z,100302.20
2019-03-06T08:17:22.914Z,100297.23
2019-03-06T08:20:00.304Z,100308.72
2019-03-06T08:22:31.454Z,100314.70
2019-03-06T08:25:08.430Z,100308.72
2019-03-06T08:27:37.861Z,100307.67
2019-03-06T08:30:10.816Z,100304.03
2019-03-06T08:32:40.382Z,100316.93
2019-03-06T08:35:11.270Z,100313.17
2019-03-06T08:37:40.854Z,100319.06
2019-03-06T08:40:12.583Z,100315.49
2019-03-06T08:42:42.160Z,100318.05
2019-03-06T08:45:15.289Z,100311.28
2019-03-06T08:48:03.329Z,100302.50
2019-03-06T08:50:34.481Z,100308.71
2019-03-06T08:53:13.193Z,100302.34
2019-03-06T08:55:44.399Z,100297.11
2019-03-06T08:58:15.664Z,100292.48
2019-03-06T09:00:49.874Z,100286.25
2019-03-06T09:03:37.725Z,100282.30
2019-03-06T09:06:15.029Z,100289.27
2019-03-06T09:09:02.360Z,100296.88
2019-03-06T09:11:39.435Z,100297.56
2019-03-06T09:14:10.687Z,100287.16
2019-03-06T09:16:44.965Z,100282.49
2019-03-06T09:19:19.131Z,100277.11
2019-03-06T09:21:59.789Z,100271.88
2019-03-06T09:24:39.699Z,100254.53
2019-03-06T09:27:13.622Z,100252.47
2019-03-06T09:30:01.263Z,100241.86
2019-03-06T09:32:39.990Z,100245.79
2019-03-06T09:35:27.298Z,100243.22
2019-03-06T09:37:58.390Z,100246.53
2019-03-06T09:40:29.522Z,100235.41
2019-03-06T09:43:17.186Z,100235.78
2019-03-06T09:45:51.468Z,100229.44
2019-03-06T09:48:28.774Z,100230.23
2019-03-06T09:50:59.828Z,100223.55
2019-03-06T09:53:30.972Z,100215.77
2019-03-06T09:56:10.772Z,100211.55
2019-03-06T09:58:41.829Z,100214.94
2019-03-06T10:01:28.348Z,100206.08
2019-03-06T10:04:16.108Z,100200.11
2019-03-06T10:06:56.142Z,100192.76
2019-03-06T10:09:30.177Z,100186.91
2019-03-06T10:12:07.326Z,100176.07
2019-03-06T10:14:41.432Z,100171.39
2019-03-06T10:17:30.189Z,100163.27
2019-03-06T10:20:03.902Z,100159.95
2019-03-06T10:22:33.396Z,100160.39
2019-03-06T10:25:03.182Z,100151.95
2019-03-06T10:27:32.664Z,100150.38
2019-03-06T10:30:02.184Z,100139.27
2019-03-06T10:32:32.266Z,100137.47
2019-03-06T10:35:01.787Z,100133.39
2019-03-06T10:37:31.277Z,100129.19
2019-03-06T10:40:00.710Z,100141.78
2019-03-06T10:42:30.193Z,100134.81
2019-03-06T10:44:59.635Z,100133.33
2019-03-06T10:47:29.052Z,100130.14
2019-03-06T10:49:58.504Z,100128.59
2019-03-06T10:52:27.930Z,100130.84
2019-03-06T10:54:58.649Z,100123.23
2019-03-06T10:57:28.255Z,100130.81
2019-03-06T10:59:57.731Z,100121.66
2019-03-06T11:02:27.393Z,100114.98
2019-03-06T11:04:58.675Z,100115.80
2019-03-06T11:07:28.246Z,100106.95
2019-03-06T11:09:57.927Z,100111.11
2019-03-06T11:12:27.577Z,100100.85
2019-03-06T11:14:57.158Z,100090.66
2019-03-06T11:17:26.814Z,100088.66
2019-03-06T11:19:56.627Z,100091.66
2019-03-06T11:22:27.191Z,100079.08
2019-03-06T11:24:56.839Z,100074.88
2019-03-06T11:27:26.387Z,100069.97
2019-03-06T11:29:56.053Z,100062.41
2019-03-06T11:32:25.552Z,100061.55
2019-03-06T11:34:54.995Z,100062.33
2019-03-06T11:37:24.807Z,100051.40
2019-03-06T11:39:54.338Z,100054.73
2019-03-06T11:42:23.847Z,100040.75
2019-03-06T11:44:53.339Z,100036.83
2019-03-06T11:47:22.971Z,100025.36
2019-03-06T11:49:52.455Z,100019.42
2019-03-06T11:52:23.479Z,100020.59
2019-03-06T11:54:52.894Z,100012.76
2019-03-06T11:57:22.423Z,100002.08
2019-03-06T11:59:53.526Z,99996.27
2019-03-06T12:02:23.353Z,100001.20
2019-03-06T12:04:52.996Z,99986.33
2019-03-06T12:07:22.479Z,99978.70
2019-03-06T12:09:51.995Z,99975.95
2019-03-06T12:12:21.428Z,99968.52
2019-03-06T12:14:51.008Z,99958.72
2019-03-06T12:17:20.653Z,99965.48
2019-03-06T12:19:50.203Z,99950.23
2019-03-06T12:22:19.870Z,99941.38
2019-03-06T12:24:49.532Z,99941.08
2019-03-06T12:27:19.017Z,99943.28
2019-03-06T12:29:48.512Z,99938.77
2019-03-06T12:32:18.034Z,99929.63
2019-03-06T12:34:47.523Z,99924.89
2019-03-06T12:37:17.097Z,99912.13
2019-03-06T12:39:46.584Z,99909.06
2019-03-06T12:42:16.019Z,99894.03
2019-03-06T12:44:45.586Z,99873.02
2019-03-06T12:47:15.082Z,99873.02
2019-03-06T12:49:44.640Z,99871.52
2019-03-06T12:52:14.224Z,99862.00
2019-03-06T12:54:45.421Z,99862.17
2019-03-06T12:57:16.584Z,99856.17
2019-03-06T12:59:46.108Z,99853.55
2019-03-06T13:02:15.539Z,99842.42
2019-03-06T13:04:44.991Z,99845.73
2019-03-06T13:07:14.406Z,99832.84
2019-03-06T13:09:43.832Z,99839.47
2019-03-06T13:12:13.513Z,99825.54
2019-03-06T13:14:42.980Z,99820.20
2019-03-06T13:17:12.510Z,99816.97
2019-03-06T13:19:41.966Z,99816.68
2019-03-06T13:22:12.348Z,99811.66
2019-03-06T13:24:41.963Z,99796.38
2019-03-06T13:27:12.081Z,99786.61
2019-03-06T13:29:41.489Z,99786.61
2019-03-06T13:32:12.035Z,99795.07
2019-03-06T13:34:50.358Z,99787.52
2019-03-06T13:37:13.002Z,99792.45
2019-03-06T13:39:42.416Z,99781.75
2019-03-06T13:42:11.915Z,99786.45
2019-03-06T13:44:41.408Z,99772.14
2019-03-06T13:47:10.853Z,99751.91
2019-03-06T13:49:40.281Z,99761.31
2019-03-06T13:52:10.198Z,99752.84
2019-03-06T13:54:39.678Z,99743.73
2019-03-06T13:57:10.807Z,99735.56
2019-03-06T13:59:40.295Z,99735.42
2019-03-06T14:02:10.773Z,99722.80
2019-03-06T14:04:40.194Z,99710.80
2019-03-06T14:07:09.975Z,99710.80
2019-03-06T14:09:40.512Z,99705.80
2019-03-06T14:12:09.924Z,99706.99
2019-03-06T14:14:39.364Z,99698.73
2019-03-06T14:17:08.911Z,99688.13
2019-03-06T14:19:40.999Z,99693.36
2019-03-06T14:22:10.549Z,99687.25
2019-03-06T14:24:40.113Z,99687.25
2019-03-06T14:27:10.539Z,99684.41
2019-03-06T14:29:40.084Z,99676.89
2019-03-06T14:32:14.559Z,99673.73
2019-03-06T14:34:40.877Z,99681.53
2019-03-06T14:37:10.370Z,99667.14
2019-03-06T14:39:39.814Z,99661.59
2019-03-06T14:42:09.488Z,99663.61
2019-03-06T14:44:38.978Z,99644.41
2019-03-06T14:47:12.024Z,99641.39
2019-03-06T14:49:41.530Z,99642.91
2019-03-06T14:52:11.037Z,99642.84
2019-03-06T14:54:40.543Z,99636.77
2019-03-06T14:57:10.076Z,99628.06
2019-03-06T14:59:39.512Z,99629.63
2019-03-06T15:02:09.287Z,99618.16
2019-03-06T15:04:38.866Z,99610.42
2019-03-06T15:07:08.352Z,99619.75
2019-03-06T15:09:42.961Z,99613.75
2019-03-06T15:12:12.925Z,99599.36
2019-03-06T15:14:42.446Z,99600.53
2019-03-06T15:17:11.979Z,99591.46
2019-03-06T15:19:41.540Z,99593.54
2019-03-06T15:22:10.965Z,99587.57
2019-03-06T15:24:41.696Z,99586.52
2019-03-06T15:27:11.657Z,99572.81
2019-03-06T15:29:41.434Z,99577.73
2019-03-06T15:32:11.904Z,99566.50
2019-03-06T15:34:41.324Z,99569.38
2019-03-06T15:37:10.818Z,99571.22
2019-03-06T15:39:45.625Z,99568.47
2019-03-06T15:42:11.909Z,99567.02
2019-03-06T15:44:41.492Z,99561.79
2019-03-06T15:47:11.023Z,99553.12
2019-03-06T15:49:41.491Z,99554.06
2019-03-06T15:52:11.326Z,99554.97
2019-03-06T15:54:41.113Z,99545.81
2019-03-06T15:57:10.765Z,99545.81
2019-03-06T15:59:43.148Z,99535.07
2019-03-06T16:02:12.778Z,99536.91
2019-03-06T16:04:42.224Z,99530.63
2019-03-06T16:07:12.355Z,99530.63
2019-03-06T16:09:42.018Z,99526.42
2019-03-06T16:12:12.418Z,99526.42
2019-03-06T16:14:42.151Z,99536.89
2019-03-06T16:17:11.627Z,99536.89
2019-03-06T16:19:41.151Z,99518.30
2019-03-06T16:22:11.213Z,99524.66
2019-03-06T16:24:40.652Z,99516.45
2019-03-06T16:27:10.444Z,99517.70
2019-03-06T16:29:39.908Z,99517.33
2019-03-06T16:32:09.398Z,99520.39
2019-03-06T16:34:39.018Z,99520.39
2019-03-06T16:37:08.574Z,99519.00
2019-03-06T16:39:38.081Z,99514.39
2019-03-06T16:42:07.832Z,99511.49
2019-03-06T16:44:37.346Z,99511.49
2019-03-06T16:47:07.180Z,99503.66
2019-03-06T16:49:36.794Z,99491.92
2019-03-06T16:52:09.312Z,99491.92
2019-03-06T16:54:38.826Z,99483.94
2019-03-06T16:57:08.381Z,99483.94
2019-03-06T16:59:37.808Z,99481.25
2019-03-06T17:02:07.362Z,99481.87
2019-03-06T17:04:39.149Z,99477.02
2019-03-06T17:07:08.622Z,99486.48
2019-03-06T17:09:38.141Z,99494.14
2019-03-06T17:12:07.901Z,99497.97
2019-03-06T17:14:37.372Z,99501.52
2019-03-06T17:17:07.320Z,99505.19
2019-03-06T17:19:36.814Z,99500.81
2019-03-06T17:22:06.377Z,99502.34
2019-03-06T17:24:35.881Z,99498.34
2019-03-06T17:27:05.927Z,99498.75
2019-03-06T17:29:35.439Z,99499.36
2019-03-06T17:32:05.064Z,99500.99
2019-03-06T17:34:34.892Z,99504.14
2019-03-06T17:37:07.991Z,99499.69
2019-03-06T17:39:38.789Z,99509.65
2019-03-06T17:42:09.173Z,99511.80
2019-03-06T17:44:41.735Z,99516.50
2019-03-06T17:47:11.341Z,99521.31
2019-03-06T17:49:40.840Z,99522.33
2019-03-06T17:52:10.611Z,99523.64
2019-03-06T17:54:43.095Z,99520.86
2019-03-06T17:57:15.663Z,99520.49
2019-03-06T18:00:16.447Z,99511.36
2019-03-06T18:02:45.093Z,99511.36
2019-03-06T18:05:13.232Z,99517.55
2019-03-06T18:07:42.927Z,99514.09
2019-03-06T18:10:19.315Z,99509.64
2019-03-06T18:12:48.855Z,99509.96
2019-03-06T18:15:19.131Z,99503.81
2019-03-06T18:17:48.869Z,99493.61
2019-03-06T18:20:19.157Z,99484.55
2019-03-06T18:22:51.319Z,99486.21
2019-03-06T18:25:22.383Z,99480.63
2019-03-06T18:27:51.951Z,99473.08
2019-03-06T18:30:21.571Z,99476.22
2019-03-06T18:32:51.213Z,99467.24
2019-03-06T18:35:23.675Z,99457.27
2019-03-06T18:37:58.843Z,99458.35
2019-03-06T18:40:28.863Z,99445.77
2019-03-06T18:42:58.308Z,99445.77
2019-03-06T18:45:27.858Z,99452.44
2019-03-06T18:47:57.440Z,99450.11
2019-03-06T18:50:27.021Z,99444.94
2019-03-06T18:52:56.540Z,99437.97
2019-03-06T18:55:30.425Z,99425.38
2019-03-06T18:58:00.133Z,99423.50
2019-03-06T19:00:31.088Z,99419.22
2019-03-06T19:03:00.581Z,99417.64
2019-03-06T19:05:30.096Z,99412.30
2019-03-06T19:07:59.589Z,99401.18
2019-03-06T19:10:29.179Z,99400.41
2019-03-06T19:13:00.198Z,99405.09
2019-03-06T19:15:35.133Z,99400.03
2019-03-06T19:18:05.575Z,99392.53
2019-03-06T19:20:35.143Z,99392.05
2019-03-06T19:23:04.878Z,99385.78
2019-03-06T19:25:35.746Z,99376.12
2019-03-06T19:28:07.078Z,99372.36
2019-03-06T19:30:36.670Z,99370.05
2019-03-06T19:33:06.263Z,99371.96
2019-03-06T19:35:37.392Z,99367.59
2019-03-06T19:38:09.197Z,99358.99
2019-03-06T19:40:38.320Z,99362.45
2019-03-06T19:43:10.554Z,99362.62
2019-03-06T19:45:41.534Z,99358.38
2019-03-06T19:48:12.095Z,99361.23
2019-03-06T19:50:43.642Z,99360.66
2019-03-06T19:53:13.033Z,99359.44
2019-03-06T19:55:44.115Z,99354.15
2019-03-06T19:58:13.715Z,99348.94
2019-03-06T20:00:43.346Z,99352.87
2019-03-06T20:03:13.109Z,99348.43
2019-03-06T20:05:43.050Z,99347.66
2019-03-06T20:08:16.375Z,99346.48
2019-03-06T20:10:45.926Z,99336.36
2019-03-06T20:13:15.691Z,99336.07
2019-03-06T20:15:45.323Z,99332.33
2019-03-06T20:18:14.851Z,99332.78
2019-03-06T20:20:44.499Z,99334.48
2019-03-06T20:23:14.099Z,99332.75
2019-03-06T20:25:49.433Z,99333.01
2019-03-06T20:28:19.044Z,99330.94
2019-03-06T20:30:49.007Z,99317.66
2019-03-06T20:33:18.992Z,99313.96
2019-03-06T20:35:51.467Z,99317.93
2019-03-06T20:38:21.953Z,99318.70
2019-03-06T20:40:54.582Z,99305.05
2019-03-06T20:43:24.064Z,99299.73
2019-03-06T20:45:57.805Z,99291.73
2019-03-06T20:48:30.343Z,99292.81
2019-03-06T20:51:01.319Z,99286.69
2019-03-06T20:53:30.734Z,99283.98
2019-03-06T20:56:00.179Z,99284.97
2019-03-06T20:58:29.642Z,99292.27
2019-03-06T21:00:59.123Z,99283.05
2019-03-06T21:03:28.732Z,99282.41
2019-03-06T21:05:58.143Z,99282.41
2019-03-06T21:08:27.585Z,99293.89
2019-03-06T21:10:57.023Z,99282.72
2019-03-06T21:13:27.966Z,99285.97
2019-03-06T21:15:58.334Z,99275.83
2019-03-06T21:18:27.828Z,99274.48
2019-03-06T21:20:58.114Z,99282.09
2019-03-06T21:23:27.537Z,99274.63
2019-03-06T21:25:56.995Z,99279.16
2019-03-06T21:28:26.502Z,99274.88
2019-03-06T21:30:55.927Z,99274.57
2019-03-06T21:33:25.374Z,99269.20
2019-03-06T21:36:00.020Z,99264.44
2019-03-06T21:38:29.447Z,99260.74
2019-03-06T21:40:58.864Z,99259.63
2019-03-06T21:43:28.386Z,99257.28
2019-03-06T21:45:57.816Z,99256.23
2019-03-06T21:48:27.270Z,99254.30
2019-03-06T21:50:56.870Z,99257.86
2019-03-06T21:53:26.304Z,99256.28
2019-03-06T21:55:55.718Z,99253.67
2019-03-06T21:58:25.151Z,99248.45
2019-03-06T22:00:56.214Z,99254.20
2019-03-06T22:03:25.769Z,99242.60
2019-03-06T22:05:55.337Z,99236.02
2019-03-06T22:08:24.770Z,99236.02
2019-03-06T22:10:55.826Z,99237.60
2019-03-06T22:13:25.262Z,99227.92
2019-03-06T22:15:54.751Z,99230.27
2019-03-06T22:18:24.572Z,99225.58
2019-03-06T22:20:54.067Z,99219.73
2019-03-06T22:23:32.472Z,99216.00
2019-03-06T22:26:01.883Z,99211.86
2019-03-06T22:28:31.387Z,99212.84
2019-03-06T22:31:01.243Z,99212.84
2019-03-06T22:33:30.694Z,99213.52
2019-03-06T22:36:01.152Z,99221.36
2019-03-06T22:38:30.597Z,99217.35
2019-03-06T22:41:02.576Z,99225.58
2019-03-06T22:43:31.135Z,99224.09
2019-03-06T22:46:00.984Z,99209.87
2019-03-06T22:48:30.539Z,99209.87
2019-03-06T22:50:59.977Z,99202.70
2019-03-06T22:53:29.767Z,99203.34
2019-03-06T22:55:59.355Z,99208.75
2019-03-06T22:58:28.784Z,99192.98
2019-03-06T23:01:01.947Z,99195.72
2019-03-06T23:03:33.041Z,99188.19
2019-03-06T23:06:02.541Z,99194.14
2019-03-06T23:08:32.051Z,99192.44
2019-03-06T23:11:01.469Z,99187.03
2019-03-06T23:13:31.041Z,99187.03
2019-03-06T23:16:03.144Z,99179.66
2019-03-06T23:18:34.121Z,99175.16
2019-03-06T23:21:03.669Z,99171.11
2019-03-06T23:23:33.108Z,99165.80
2019-03-06T23:26:02.611Z,99153.05
2019-03-06T23:28:32.019Z,99157.02
2019-03-06T23:31:01.463Z,99152.70
2019-03-06T23:33:30.966Z,99155.95
2019-03-06T23:36:00.385Z,99152.44
2019-03-06T23:38:30.469Z,99146.91
2019-03-06T23:40:59.897Z,99151.58
2019-03-06T23:43:29.733Z,99159.36
2019-03-06T23:45:59.179Z,99156.45
2019-03-06T23:48:29.654Z,99143.48
2019-03-06T23:51:00.750Z,99145.37
2019-03-06T23:53:31.867Z,99145.37
2019-03-06T23:56:04.214Z,99140.72
2019-03-06T23:58:33.625Z,99141.75
